createdAt,value
2018-10-04T00:01:34.770Z,91.30
2018-10-04T00:06:37.768Z,91.50
2018-10-04T00:11:40.763Z,92.40
2018-10-04T00:16:44.044Z,93.30
2018-10-04T00:21:47.062Z,93.70
2018-10-04T00:26:50.142Z,93.80
2018-10-04T00:31:53.275Z,93.20
2018-10-04T00:36:56.257Z,94.80
2018-10-04T00:41:59.287Z,95.20
2018-10-04T00:47:05.323Z,94.90
2018-10-04T00:52:08.360Z,94.70
2018-10-04T00:57:11.423Z,95.90
2018-10-04T01:02:14.484Z,96.10
2018-10-04T01:07:17.531Z,96.20
2018-10-04T01:12:20.524Z,97.10
2018-10-04T01:17:23.566Z,95.00
2018-10-04T01:22:26.707Z,94.70
2018-10-04T01:27:29.756Z,95.20
2018-10-04T01:32:32.902Z,95.20
2018-10-04T01:37:35.976Z,96.10
2018-10-04T01:42:39.082Z,96.30
2018-10-04T01:47:42.127Z,94.60
2018-10-04T01:52:45.247Z,96.90
2018-10-04T01:57:48.203Z,96.50
2018-10-04T02:02:51.424Z,94.70
2018-10-04T02:07:54.508Z,94.40
2018-10-04T02:12:57.753Z,95.80
2018-10-04T02:18:02.684Z,96.20
2018-10-04T02:23:06.423Z,96.20
2018-10-04T02:28:09.531Z,96.40
2018-10-04T02:33:12.520Z,96.80
2018-10-04T02:38:15.515Z,97.10
2018-10-04T02:43:18.455Z,97.30
2018-10-04T02:48:21.404Z,97.90
2018-10-04T02:53:24.379Z,98.00
2018-10-04T02:58:27.380Z,98.20
2018-10-04T03:03:30.435Z,97.80
2018-10-04T03:08:33.404Z,97.40
2018-10-04T03:13:36.408Z,97.80
2018-10-04T03:18:39.926Z,98.50
2018-10-04T03:23:43.098Z,99.00
2018-10-04T03:28:46.072Z,98.90
2018-10-04T03:33:49.061Z,99.50
2018-10-04T03:38:52.152Z,99.90
2018-10-04T03:43:55.131Z,92.70
2018-10-04T03:48:58.263Z,96.60
2018-10-04T03:54:03.643Z,96.40
2018-10-04T03:59:06.567Z,99.90
2018-10-04T04:04:09.658Z,99.90
2018-10-04T04:09:12.716Z,99.90
2018-10-04T04:14:15.716Z,99.90
2018-10-04T04:19:18.656Z,99.90
2018-10-04T04:24:21.678Z,99.90
2018-10-04T04:29:24.656Z,99.90
2018-10-04T04:34:27.622Z,99.50
2018-10-04T04:39:30.815Z,99.40
2018-10-04T04:44:33.804Z,97.70
2018-10-04T04:49:36.724Z,97.60
2018-10-04T04:55:44.079Z,96.30
2018-10-04T05:00:47.175Z,96.40
2018-10-04T05:05:50.206Z,95.20
2018-10-04T05:10:53.208Z,96.50
2018-10-04T05:15:56.550Z,97.90
2018-10-04T05:20:59.430Z,97.80
2018-10-04T05:26:04.594Z,97.10
2018-10-04T05:31:07.965Z,96.80
2018-10-04T05:36:12.141Z,95.80
2018-10-04T05:41:15.106Z,94.90
2018-10-04T05:46:18.100Z,99.30
2018-10-04T05:51:21.061Z,99.90
2018-10-04T05:56:24.060Z,99.50
2018-10-04T06:01:27.043Z,95.90
2018-10-04T06:06:30.017Z,94.70
2018-10-04T06:11:33.014Z,88.60
2018-10-04T06:16:35.972Z,87.10
2018-10-04T06:21:38.944Z,80.00
2018-10-04T06:26:41.916Z,76.20
2018-10-04T06:31:44.875Z,75.20
2018-10-04T06:36:48.053Z,78.40
2018-10-04T06:41:50.922Z,77.10
2018-10-04T06:46:53.889Z,73.80
2018-10-04T06:51:56.887Z,70.10
2018-10-04T06:56:59.906Z,69.00
2018-10-04T07:02:03.839Z,68.00
2018-10-04T07:07:06.853Z,66.40
2018-10-04T07:12:09.915Z,69.40
2018-10-04T07:17:12.950Z,68.00
2018-10-04T07:22:16.013Z,66.80
2018-10-04T07:27:18.997Z,67.70
2018-10-04T07:32:22.470Z,69.30
2018-10-04T07:37:26.261Z,67.50
2018-10-04T07:42:29.211Z,67.00
2018-10-04T07:47:32.139Z,68.40
2018-10-04T07:52:35.731Z,70.10
2018-10-04T07:57:38.695Z,71.10
2018-10-04T08:02:42.111Z,68.40
2018-10-04T08:07:45.232Z,69.10
2018-10-04T08:12:48.242Z,70.70
2018-10-04T08:17:51.277Z,72.70
2018-10-04T08:22:54.280Z,72.30
2018-10-04T08:27:57.323Z,70.80
2018-10-04T08:33:00.374Z,71.60
2018-10-04T08:38:05.157Z,69.00
2018-10-04T08:43:08.175Z,67.80
2018-10-04T08:48:11.303Z,69.20
2018-10-04T08:53:14.255Z,68.40
2018-10-04T08:58:17.477Z,68.80
2018-10-04T09:03:20.538Z,68.50
2018-10-04T09:08:23.974Z,67.80
2018-10-04T09:13:26.958Z,67.20
2018-10-04T09:18:29.943Z,67.80
2018-10-04T09:23:33.083Z,67.20
2018-10-04T09:28:36.075Z,66.00
2018-10-04T09:33:39.076Z,66.70
2018-10-04T09:38:42.036Z,67.30
2018-10-04T09:43:45.229Z,65.50
2018-10-04T09:48:48.940Z,64.90
2018-10-04T09:53:53.122Z,65.20
2018-10-04T09:58:57.846Z,63.70
2018-10-04T10:04:02.008Z,63.10
2018-10-04T10:09:07.922Z,61.90
2018-10-04T10:14:12.175Z,61.30
2018-10-04T10:19:15.271Z,61.20
2018-10-04T10:24:18.252Z,60.30
2018-10-04T10:29:21.347Z,59.00
2018-10-04T10:34:24.378Z,57.70
2018-10-04T10:39:27.350Z,57.00
2018-10-04T10:44:30.312Z,56.80
2018-10-04T10:49:33.366Z,55.90
2018-10-04T10:54:36.420Z,56.80
2018-10-04T10:59:39.339Z,57.00
2018-10-04T11:04:42.253Z,55.40
2018-10-04T11:09:45.192Z,55.30
2018-10-04T11:14:48.230Z,54.40
2018-10-04T11:19:51.254Z,53.70
2018-10-04T11:24:54.257Z,52.20
2018-10-04T11:29:57.277Z,53.70
2018-10-04T11:35:00.450Z,54.50
2018-10-04T11:40:05.309Z,53.60
2018-10-04T11:45:29.611Z,53.20
2018-10-04T11:50:32.734Z,54.10
2018-10-04T11:55:35.749Z,53.00
2018-10-04T12:00:38.744Z,53.10
2018-10-04T12:05:41.837Z,52.90
2018-10-04T12:10:44.816Z,52.80
2018-10-04T12:15:47.913Z,52.20
2018-10-04T12:20:50.893Z,52.60
2018-10-04T12:25:53.904Z,53.00
2018-10-04T12:30:56.934Z,53.10
2018-10-04T12:36:00.009Z,52.60
2018-10-04T12:41:04.424Z,51.80
2018-10-04T12:46:08.045Z,51.70
2018-10-04T12:51:11.154Z,52.10
2018-10-04T12:56:14.107Z,50.50
2018-10-04T13:01:17.270Z,50.60
2018-10-04T13:06:20.288Z,50.90
2018-10-04T13:11:23.212Z,51.00
2018-10-04T13:16:26.253Z,51.10
2018-10-04T13:21:29.404Z,51.00
2018-10-04T13:26:32.333Z,50.80
2018-10-04T13:31:35.333Z,50.60
2018-10-04T13:36:38.399Z,50.60
2018-10-04T13:41:41.458Z,50.60
2018-10-04T13:46:44.560Z,50.50
2018-10-04T13:51:47.779Z,50.60
2018-10-04T13:56:50.878Z,50.80
2018-10-04T14:01:54.012Z,50.30
2018-10-04T14:06:57.038Z,50.10
2018-10-04T14:11:59.997Z,50.20
2018-10-04T14:17:03.844Z,50.10
2018-10-04T14:22:06.836Z,49.70
2018-10-04T14:27:10.008Z,50.20
2018-10-04T14:32:13.086Z,50.00
2018-10-04T14:37:16.157Z,49.60
2018-10-04T14:42:19.365Z,49.90
2018-10-04T14:47:22.356Z,49.90
2018-10-04T14:52:26.549Z,50.30
2018-10-04T14:57:29.564Z,50.30
2018-10-04T15:02:32.616Z,50.50
2018-10-04T15:07:35.661Z,50.30
2018-10-04T15:12:38.666Z,50.30
2018-10-04T15:17:41.830Z,50.50
2018-10-04T15:22:45.067Z,50.50
2018-10-04T15:27:48.225Z,50.20
2018-10-04T15:32:51.273Z,50.40
2018-10-04T15:37:54.287Z,50.90
2018-10-04T15:42:57.305Z,51.40
2018-10-04T15:48:00.351Z,51.50
2018-10-04T15:53:04.977Z,51.90
2018-10-04T15:58:08.029Z,52.00
2018-10-04T16:03:10.972Z,51.80
2018-10-04T16:08:13.922Z,52.30
2018-10-04T16:13:16.904Z,52.10
2018-10-04T16:18:19.940Z,52.50
2018-10-04T16:23:22.997Z,52.70
2018-10-04T16:28:25.954Z,53.00
2018-10-04T16:33:28.986Z,54.20
2018-10-04T16:38:31.915Z,56.20
2018-10-04T16:43:34.952Z,56.20
2018-10-04T16:48:38.158Z,57.60
2018-10-04T16:53:41.090Z,59.00
2018-10-04T16:58:44.306Z,58.90
2018-10-04T17:03:47.331Z,59.40
2018-10-04T17:08:50.362Z,59.70
2018-10-04T17:13:53.436Z,60.80
2018-10-04T17:18:56.421Z,62.60
2018-10-04T17:23:59.503Z,63.10
2018-10-04T17:29:03.374Z,63.60
2018-10-04T17:34:07.136Z,64.10
2018-10-04T17:39:10.206Z,64.70
2018-10-04T17:44:13.366Z,65.30
2018-10-04T17:49:16.535Z,65.90
2018-10-04T17:54:19.818Z,66.70
2018-10-04T17:59:22.804Z,68.00
2018-10-04T18:04:26.139Z,68.60
2018-10-04T18:09:29.116Z,68.50
2018-10-04T18:14:32.183Z,68.90
2018-10-04T18:19:35.263Z,69.40
2018-10-04T18:24:38.304Z,70.00
2018-10-04T18:29:41.364Z,70.20
2018-10-04T18:34:44.612Z,70.80
2018-10-04T18:39:47.712Z,71.50
2018-10-04T18:44:50.804Z,71.60
2018-10-04T18:49:54.085Z,72.10
2018-10-04T18:54:57.389Z,73.10
2018-10-04T19:00:04.230Z,74.10
2018-10-04T19:05:07.357Z,74.30
2018-10-04T19:10:10.484Z,75.10
2018-10-04T19:15:13.560Z,75.50
2018-10-04T19:20:16.714Z,76.60
2018-10-04T19:25:19.805Z,77.40
2018-10-04T19:30:23.016Z,77.80
2018-10-04T19:35:26.173Z,79.40
2018-10-04T19:40:29.256Z,79.60
2018-10-04T19:45:32.302Z,82.00
2018-10-04T19:50:35.350Z,82.40
2018-10-04T19:55:38.418Z,83.80
2018-10-04T20:00:41.468Z,84.30
2018-10-04T20:05:44.437Z,84.70
2018-10-04T20:10:47.785Z,85.50
2018-10-04T20:15:51.236Z,87.30
2018-10-04T20:20:54.502Z,87.00
2018-10-04T20:25:57.501Z,87.20
2018-10-04T20:31:03.544Z,88.20
2018-10-04T20:36:06.559Z,88.20
2018-10-04T20:41:09.579Z,88.20
2018-10-04T20:46:12.733Z,88.80
2018-10-04T20:51:15.807Z,88.60
2018-10-04T20:56:18.977Z,89.10
2018-10-04T21:01:22.032Z,89.00
2018-10-04T21:06:25.368Z,88.60
2018-10-04T21:11:28.574Z,89.60
2018-10-04T21:16:31.702Z,88.60
2018-10-04T21:21:34.717Z,90.40
2018-10-04T21:26:37.775Z,91.80
2018-10-04T21:31:40.857Z,92.70
2018-10-04T21:36:43.870Z,92.60
2018-10-04T21:41:47.568Z,91.70
2018-10-04T21:46:50.721Z,89.00
2018-10-04T21:51:53.876Z,89.80
2018-10-04T21:56:56.819Z,90.50
2018-10-04T22:01:59.876Z,92.00
2018-10-04T22:07:03.765Z,94.80
2018-10-04T22:12:07.119Z,93.60
2018-10-04T22:17:10.090Z,96.10
2018-10-04T22:22:12.963Z,96.30
2018-10-04T22:27:15.953Z,96.00
2018-10-04T22:32:18.845Z,95.90
2018-10-04T22:37:21.807Z,94.40
2018-10-04T22:42:24.791Z,93.20
2018-10-04T22:47:27.991Z,93.70
2018-10-04T22:52:30.757Z,93.40
2018-10-04T22:57:34.369Z,93.20
2018-10-04T23:02:37.672Z,93.20
2018-10-04T23:07:40.568Z,92.80
2018-10-04T23:12:43.799Z,93.00
2018-10-04T23:17:46.988Z,93.30
2018-10-04T23:22:49.941Z,93.30
2018-10-04T23:27:52.916Z,93.20
2018-10-04T23:32:55.972Z,92.90
2018-10-04T23:37:59.032Z,92.90
2018-10-04T23:43:04.179Z,92.40
2018-10-04T23:48:07.213Z,92.30
2018-10-04T23:53:10.196Z,92.50
2018-10-04T23:58:13.179Z,92.70
